Flight Track Log - Related Links

Times and Time Zones

All times are in EDT time to prevent confusion due to time zone crossing. See the SVA317 flight status page for this flight to view local times or setup timezone preferences in your user account.

Time Position Orientation Groundspeed Altitude Reporting Facility
EDT Latitude Longitude Course Direction KTS MPH feet Rate Location/Type
Sat 08:18:00 AM 26.5018 36.9744 309° West  Level Estimated
Sat 08:19:00 AM 26.5583 36.8928 308° West  Level Estimated
Sat 08:20:00 AM 26.6147 36.8110 308° West  Level Estimated
Sat 08:21:00 AM 26.6712 36.7292 308° West  Level Estimated
Sat 08:22:00 AM 26.7276 36.6472 308° West  Level Estimated
Sat 08:23:00 AM 26.7839 36.5652 308° West  Level Estimated
Sat 08:24:00 AM 26.8402 36.4832 308° West  Level Estimated
Sat 08:25:00 AM 26.8964 36.4010 308° West  Level Estimated
Sat 08:26:00 AM 26.9526 36.3187 307° West  Level Estimated
Sat 08:27:00 AM 27.0088 36.2364 307° West  Level Estimated
Sat 08:28:00 AM 27.0648 36.1540 307° West  Level Estimated
Sat 08:29:00 AM 27.1209 36.0715 307° West  Level Estimated
Sat 08:30:00 AM 27.1769 35.9889 307° West  Level Estimated
Sat 08:31:00 AM 27.2328 35.9063 307° West  Level Estimated
Sat 08:32:00 AM 27.2887 35.8235 307° West  Level Estimated
Sat 08:33:00 AM 27.3446 35.7407 307° West  Level Estimated
Sat 08:34:00 AM 27.4004 35.6578 307° West  Level Estimated
Sat 08:35:00 AM 27.4562 35.5748 307° West  Level Estimated
Sat 08:36:00 AM 27.5119 35.4917 307° West  Level Estimated
Sat 08:37:00 AM 27.5675 35.4086 307° West  Level Estimated
Sat 08:38:00 AM 27.6231 35.3253 307° West  Level Estimated
Sat 08:39:00 AM 27.6787 35.2420 307° West  Level Estimated
Sat 08:40:00 AM 27.7342 35.1586 307° West  Level Estimated
Sat 08:41:00 AM 27.7897 35.0751 307° West  Level Estimated
Sat 08:42:00 AM 27.8451 34.9915 307° West  Level Estimated
Sat 08:43:00 AM 27.9004 34.9078 307° West  Level Estimated
Sat 08:44:00 AM 27.9557 34.8241 307° West  Level Estimated
Sat 08:45:00 AM 28.0110 34.7402 307° West  Level Estimated
Sat 08:46:00 AM 28.0662 34.6563 307° West  Level Estimated
Sat 08:47:00 AM 28.1213 34.5723 307° West  Level Estimated
Sat 08:48:00 AM 28.1765 34.4882 307° West  Level Estimated
Sat 08:49:00 AM 28.2315 34.4040 307° West  Level Estimated
Sat 08:50:00 AM 28.2865 34.3198 307° West  Level Estimated
Sat 08:51:00 AM 28.3414 34.2354 307° West  Level Estimated
Sat 08:52:00 AM 28.3963 34.1509 306° West  Level Estimated
Sat 08:53:00 AM 28.4676 34.0411 306° West  Level Estimated
Sat 08:54:00 AM 28.5387 33.9312 306° West  Level Estimated
Sat 08:55:00 AM 28.6097 33.8211 306° West  Level Estimated
Sat 08:56:00 AM 28.6807 33.7108 306° West  Level Estimated
Sat 08:57:00 AM 28.7515 33.6004 306° West  Level Estimated
Sat 08:58:00 AM 28.8223 33.4899 306° West  Level Estimated
Sat 08:59:00 AM 28.8930 33.3792 306° West  Level Estimated
Sat 09:00:00 AM 28.9636 33.2683 306° West  Level Estimated
Sat 09:01:00 AM 29.0341 33.1573 306° West  Level Estimated
Sat 09:02:00 AM 29.1045 33.0462 306° West  Level Estimated
Sat 09:03:00 AM 29.1748 32.9349 306° West  Level Estimated
Sat 09:04:00 AM 29.2450 32.8234 306° West  Level Estimated
Sat 09:05:00 AM 29.3151 32.7118 306° West  Level Estimated
Sat 09:06:00 AM 29.3852 32.6001 306° West  Level Estimated
Sat 09:07:00 AM 29.4551 32.4882 306° West  Level Estimated
Sat 09:08:00 AM 29.5250 32.3761 306° West  Level Estimated
Sat 09:09:00 AM 29.5947 32.2639 306° West  Level Estimated
Sat 09:10:00 AM 29.6644 32.1515 306° West  Level Estimated
Sat 09:11:00 AM 29.7340 32.0389 305° West  Level Estimated
Sat 09:12:00 AM 29.8034 31.9263 305° West  Level Estimated
Sat 09:13:00 AM 29.8728 31.8134 305° West  Level Estimated
Sat 09:14:00 AM 29.9421 31.7004 305° West  Level Estimated
Sat 09:15:00 AM 30.0113 31.5872 305° West  Level Estimated
Sat 09:16:00 AM 30.0804 31.4739 305° West  Level Estimated
Sat 09:17:00 AM 30.1219 31.4056 305° West  Level Estimated

Login

Don't have an account? Register now (free) for customized features, flight alerts, and more!